This is the latest recevied weather packets stored in our database for station/object N3SBK. If no packets are shown the sender has not sent any weather packets the latest 10 day(s).
| Time | Temp. | Humidity | Pressure | Rain* | Wind** | Luminosity | Snow |
|---|---|---|---|---|---|---|---|
| 1777737128 | 7.78° C | 62% | 1005.8 hPa | 0 mm | - | 155 W/m² | - |
| 1777736824 | 7.78° C | 67% | 1005.8 hPa | 0 mm | - | 633 W/m² | - |
| 1777736200 | 5.56° C | 76% | 1006 hPa | 0 mm | - | 750 W/m² | - |
| 1777735897 | 5.56° C | 72% | 1006 hPa | 0 mm | - | 134 W/m² | - |
| 1777735595 | 6.11° C | 70% | 1006.1 hPa | 0 mm | - | 47 W/m² | - |
| 1777735292 | 6.67° C | 68% | 1006 hPa | 0 mm | - | 50 W/m² | - |
| 1777734990 | 6.67° C | 69% | 1005.8 hPa | 0 mm | - | 90 W/m² | - |
| 1777734687 | 6.67° C | 71% | 1006.1 hPa | 0 mm | - | 328 W/m² | - |
| 1777734384 | 6.11° C | 71% | 1005.9 hPa | 0 mm | - | 250 W/m² | - |
| 1777734080 | 6.11° C | 73% | 1005.9 hPa | 0 mm | - | 235 W/m² | - |
| 1777733777 | 6.11° C | 73% | 1005.7 hPa | 0 mm | - | 174 W/m² | - |
| 1777733474 | 6.11° C | 72% | 1006 hPa | 0 mm | - | 200 W/m² | - |
| 1777733169 | 5.56° C | 74% | 1005.9 hPa | 0 mm | - | 245 W/m² | - |
| 1777732866 | 5.56° C | 74% | 1006 hPa | 0 mm | - | 104 W/m² | - |
| 1777732563 | 5.56° C | 76% | 1005.8 hPa | 0 mm | - | 155 W/m² | - |
| 1777732261 | 5.56° C | 75% | 1005.9 hPa | 0 mm | - | 66 W/m² | - |
| 1777731958 | 5.56° C | 76% | 1006.2 hPa | 0 mm | - | 134 W/m² | - |
| 1777731654 | 5.56° C | 77% | 1005.9 hPa | 0 mm | - | 70 W/m² | - |
| 1777731352 | 6.11° C | 76% | 1005.9 hPa | 0 mm | - | 37 W/m² | - |
| 1777731049 | 6.11° C | 78% | 1005.7 hPa | 0 mm | - | 42 W/m² | - |
| 1777730748 | 5.56° C | 76% | 1005.8 hPa | 0 mm | - | 260 W/m² | - |
| 1777730444 | 5.56° C | 78% | 1005.8 hPa | 0 mm | - | 187 W/m² | - |
| 1777730139 | 5° C | 78% | 1005.7 hPa | 0 mm | - | 201 W/m² | - |
| 1777729837 | 5° C | 79% | 1005.9 hPa | 0 mm | - | 155 W/m² | - |
| 1777729533 | 5° C | 79% | 1005.9 hPa | 0 mm | - | 88 W/m² | - |
* Rain latest hour (hover to see other rain measurements)
** Current wind speed in m/s (hover to see current wind gust speed)